Decoded Metar for KSTP (ST. PAUL in MN, USA) (IATA:STP) | Meteo·Mobile Aviation Weather
aviador You're here:

KSTP Decoded Metar

ST. PAUL in MN, USA
Report Time2019-10-18 13:53:00
UTC Time2019-10-18 14:33:59
Flight Rules vfr VFR
Wind140° at 18 Gusting to 29 kt
W.Decomp.*RWY 14: 18.0 kt HW 0.9 kt LCW
RWY 13: 17.9 kt HW 2.2 kt RCW
RWY 09: 12.3 kt HW 13.2 kt RCW
Visibility9999 m
Phenomena:N/A
Clouds:N/A
Expected CloudBase > 2,400 ft AGL from Temp-Dew spread
CeilingNone
Temp09°C (ISA -5)
Dew Point03°C (66% RH)
AAT1.0°C
QNH1008 hPa
Density Alt449 ft
Elevation719 ft
Report Wrong Elevation
Raw Report
KSTP 181353Z 14018G29KT 10SM CLR 09/03 A2976 RMK AO2 PK WND
15029/1348 SLP080 T00890033=

Extra information for KSTP:More info

Metar Taf Metar & Taf Last 4 Metars F.Rules Stats Wind Profile Meteogram Temp Stats Airport Information Weather charts Add Link Nearby VenuesMetar ALERT Operation Metar Decoded Social comments

AIRNAV info for KSTP